createdAt,value
2019-01-28T00:02:30.264Z,99.37
2019-01-28T00:05:37.788Z,99.61
2019-01-28T00:08:45.481Z,99.44
2019-01-28T00:11:53.182Z,99.82
2019-01-28T00:15:00.886Z,98.94
2019-01-28T00:18:08.372Z,97.48
2019-01-28T00:21:16.097Z,96.92
2019-01-28T00:24:23.981Z,97.06
2019-01-28T00:27:32.676Z,96.77
2019-01-28T00:30:40.500Z,96.58
2019-01-28T00:33:47.837Z,96.99
2019-01-28T00:36:55.416Z,98.09
2019-01-28T00:40:04.036Z,98.81
2019-01-28T00:43:11.415Z,99.32
2019-01-28T00:46:19.023Z,100.00
2019-01-28T00:49:26.289Z,100.00
2019-01-28T00:52:33.767Z,100.00
2019-01-28T00:55:41.371Z,100.00
2019-01-28T00:58:49.012Z,100.00
2019-01-28T01:01:56.825Z,100.00
2019-01-28T01:05:05.340Z,100.00
2019-01-28T01:08:13.239Z,100.00
2019-01-28T01:11:20.580Z,100.00
2019-01-28T01:14:28.322Z,100.00
2019-01-28T01:17:36.087Z,100.00
2019-01-28T01:20:43.587Z,100.00
2019-01-28T01:23:52.196Z,100.00
2019-01-28T01:27:00.092Z,99.60
2019-01-28T01:30:11.650Z,99.14
2019-01-28T01:33:18.819Z,99.48
2019-01-28T01:36:26.303Z,99.29
2019-01-28T01:39:33.935Z,99.13
2019-01-28T01:42:41.323Z,99.29
2019-01-28T01:45:48.709Z,100.00
2019-01-28T01:48:56.224Z,100.00
2019-01-28T01:52:03.863Z,100.00
2019-01-28T01:55:12.995Z,100.00
2019-01-28T01:58:20.416Z,100.00
2019-01-28T02:01:27.952Z,100.00
2019-01-28T02:04:35.182Z,100.00
2019-01-28T02:07:43.146Z,99.80
2019-01-28T02:10:50.470Z,99.43
2019-01-28T02:13:57.978Z,99.43
2019-01-28T02:17:05.517Z,98.38
2019-01-28T02:20:13.835Z,97.69
2019-01-28T02:23:21.159Z,97.47
2019-01-28T02:26:28.835Z,96.98
2019-01-28T02:29:36.519Z,96.40
2019-01-28T02:32:44.240Z,95.92
2019-01-28T02:35:51.644Z,95.80
2019-01-28T02:38:59.433Z,95.75
2019-01-28T02:42:06.943Z,95.11
2019-01-28T02:45:15.551Z,94.48
2019-01-28T02:48:23.168Z,93.96
2019-01-28T02:51:30.751Z,94.42
2019-01-28T02:54:38.390Z,94.28
2019-01-28T02:57:46.424Z,93.89
2019-01-28T03:00:54.276Z,93.47
2019-01-28T03:04:01.892Z,93.77
2019-01-28T03:07:09.188Z,93.36
2019-01-28T03:10:21.649Z,92.93
2019-01-28T03:13:29.419Z,94.01
2019-01-28T03:16:37.220Z,93.47
2019-01-28T03:19:44.545Z,93.89
2019-01-28T03:22:52.150Z,94.29
2019-01-28T03:25:59.924Z,93.39
2019-01-28T03:29:07.674Z,93.99
2019-01-28T03:32:15.306Z,93.11
2019-01-28T03:35:22.704Z,93.77
2019-01-28T03:38:30.369Z,93.80
2019-01-28T03:41:38.171Z,93.98
2019-01-28T03:44:45.653Z,94.57
2019-01-28T03:47:53.371Z,94.64
2019-01-28T03:51:01.189Z,94.35
2019-01-28T03:54:08.890Z,94.85
2019-01-28T03:57:16.796Z,95.22
2019-01-28T04:00:25.002Z,95.29
2019-01-28T04:03:32.512Z,94.87
2019-01-28T04:06:40.271Z,95.09
2019-01-28T04:09:48.008Z,94.68
2019-01-28T04:12:55.672Z,94.64
2019-01-28T04:16:03.292Z,95.41
2019-01-28T04:19:10.728Z,95.52
2019-01-28T04:22:18.136Z,95.10
2019-01-28T04:25:25.767Z,94.74
2019-01-28T04:28:33.073Z,93.53
2019-01-28T04:31:42.219Z,93.84
2019-01-28T04:34:49.860Z,94.30
2019-01-28T04:37:57.357Z,93.05
2019-01-28T04:41:04.937Z,93.58
2019-01-28T04:44:12.517Z,92.99
2019-01-28T04:47:19.933Z,92.61
2019-01-28T04:50:30.684Z,92.94
2019-01-28T04:53:38.257Z,91.66
2019-01-28T04:56:45.945Z,91.18
2019-01-28T04:59:53.879Z,91.10
2019-01-28T05:06:16.697Z,89.34
2019-01-28T05:09:24.096Z,89.62
2019-01-28T05:12:31.826Z,88.33
2019-01-28T05:15:39.707Z,88.01
2019-01-28T05:18:47.023Z,88.03
2019-01-28T05:21:54.703Z,87.96
2019-01-28T05:25:02.496Z,86.98
2019-01-28T05:28:09.888Z,86.42
2019-01-28T05:31:17.395Z,86.12
2019-01-28T05:34:42.154Z,86.46
2019-01-28T05:37:50.454Z,85.07
2019-01-28T05:40:57.761Z,85.79
2019-01-28T05:44:05.259Z,85.76
2019-01-28T05:47:12.887Z,86.66
2019-01-28T05:50:20.930Z,85.92
2019-01-28T05:53:28.736Z,86.33
2019-01-28T05:56:36.514Z,86.68
2019-01-28T05:59:44.221Z,87.19
2019-01-28T06:02:51.714Z,86.33
2019-01-28T06:05:59.500Z,85.51
2019-01-28T06:09:08.916Z,84.46
2019-01-28T06:12:16.400Z,84.01
2019-01-28T06:15:24.443Z,83.84
2019-01-28T06:18:31.968Z,83.01
2019-01-28T06:21:39.257Z,82.79
2019-01-28T06:24:47.077Z,82.72
2019-01-28T06:27:54.530Z,82.52
2019-01-28T06:31:02.031Z,82.56
2019-01-28T06:34:09.541Z,82.67
2019-01-28T06:37:17.028Z,82.23
2019-01-28T06:40:31.186Z,82.84
2019-01-28T06:43:38.629Z,82.85
2019-01-28T06:46:46.039Z,82.65
2019-01-28T06:49:53.483Z,83.34
2019-01-28T06:53:01.472Z,83.95
2019-01-28T06:56:08.954Z,83.22
2019-01-28T06:59:16.346Z,82.30
2019-01-28T07:02:23.912Z,82.83
2019-01-28T07:05:31.410Z,83.74
2019-01-28T07:08:38.902Z,82.68
2019-01-28T07:11:46.548Z,82.87
2019-01-28T07:14:54.357Z,82.24
2019-01-28T07:18:02.105Z,81.77
2019-01-28T07:21:09.711Z,81.56
2019-01-28T07:24:17.580Z,82.88
2019-01-28T07:27:25.703Z,83.45
2019-01-28T07:30:37.206Z,82.37
2019-01-28T07:33:44.939Z,83.52
2019-01-28T07:36:53.146Z,84.02
2019-01-28T07:40:00.672Z,83.69
2019-01-28T07:43:08.167Z,84.02
2019-01-28T07:46:15.835Z,84.90
2019-01-28T07:49:23.346Z,85.45
2019-01-28T07:52:31.121Z,84.17
2019-01-28T07:55:39.065Z,84.06
2019-01-28T07:58:46.289Z,83.30
2019-01-28T08:01:53.712Z,83.13
2019-01-28T08:05:01.748Z,82.89
2019-01-28T08:08:09.278Z,82.46
2019-01-28T08:11:16.946Z,82.06
2019-01-28T08:14:24.758Z,81.89
2019-01-28T08:17:32.292Z,81.85
2019-01-28T08:20:39.951Z,81.53
2019-01-28T08:23:47.286Z,81.28
2019-01-28T08:26:54.728Z,81.69
2019-01-28T08:30:02.376Z,81.16
2019-01-28T08:33:09.892Z,81.18
2019-01-28T08:36:17.380Z,82.19
2019-01-28T08:39:24.959Z,81.40
2019-01-28T08:42:32.632Z,81.15
2019-01-28T08:45:40.236Z,80.19
2019-01-28T08:48:48.621Z,81.02
2019-01-28T08:51:56.047Z,79.50
2019-01-28T08:55:05.406Z,79.01
2019-01-28T08:58:12.796Z,78.72
2019-01-28T09:01:20.585Z,78.29
2019-01-28T09:04:28.000Z,78.50
2019-01-28T09:07:35.512Z,78.17
2019-01-28T09:10:43.238Z,77.75
2019-01-28T09:13:50.732Z,76.64
2019-01-28T09:16:58.231Z,76.26
2019-01-28T09:20:11.269Z,76.04
2019-01-28T09:23:18.752Z,76.10
2019-01-28T09:26:26.825Z,75.26
2019-01-28T09:29:34.256Z,76.11
2019-01-28T09:32:42.694Z,75.27
2019-01-28T09:35:50.533Z,74.28
2019-01-28T09:38:58.036Z,74.42
2019-01-28T09:42:05.758Z,75.26
2019-01-28T09:45:21.288Z,74.26
2019-01-28T09:48:34.174Z,73.60
2019-01-28T09:51:38.510Z,73.65
2019-01-28T09:54:46.245Z,73.39
2019-01-28T09:57:54.139Z,72.83
2019-01-28T10:01:02.541Z,71.60
2019-01-28T10:04:10.678Z,71.79
2019-01-28T10:07:18.266Z,71.35
2019-01-28T10:10:25.865Z,70.49
2019-01-28T10:13:33.375Z,70.72
2019-01-28T10:16:40.871Z,71.13
2019-01-28T10:19:48.770Z,71.66
2019-01-28T10:22:56.274Z,71.46
2019-01-28T10:26:04.277Z,70.92
2019-01-28T10:29:11.820Z,70.09
2019-01-28T10:32:19.440Z,72.03
2019-01-28T10:35:29.202Z,72.75
2019-01-28T10:38:36.708Z,71.32
2019-01-28T10:41:44.723Z,72.10
2019-01-28T10:44:52.092Z,71.47
2019-01-28T10:48:00.963Z,71.01
2019-01-28T10:51:08.843Z,70.14
2019-01-28T10:54:16.648Z,69.92
2019-01-28T10:57:24.454Z,69.61
2019-01-28T11:00:35.724Z,67.60
2019-01-28T11:03:43.297Z,66.92
2019-01-28T11:06:50.805Z,66.31
2019-01-28T11:09:58.212Z,66.29
2019-01-28T11:13:06.613Z,66.59
2019-01-28T11:16:14.131Z,66.60
2019-01-28T11:19:21.740Z,66.12
2019-01-28T11:22:29.360Z,66.03
2019-01-28T11:25:37.186Z,64.95
2019-01-28T11:28:44.991Z,66.13
2019-01-28T11:31:56.263Z,66.82
2019-01-28T11:35:04.491Z,65.42
2019-01-28T11:38:13.740Z,65.05
2019-01-28T11:41:21.415Z,63.35
2019-01-28T11:44:29.044Z,63.17
2019-01-28T11:47:37.229Z,63.41
2019-01-28T11:50:44.922Z,63.76
2019-01-28T11:53:52.414Z,62.38
2019-01-28T11:56:59.732Z,62.21
2019-01-28T12:00:16.563Z,61.46
2019-01-28T12:03:24.123Z,61.50
2019-01-28T12:06:32.032Z,61.90
2019-01-28T12:09:40.109Z,60.90
2019-01-28T12:12:47.665Z,63.07
2019-01-28T12:15:55.642Z,61.05
2019-01-28T12:19:03.710Z,60.66
2019-01-28T12:22:11.617Z,61.44
2019-01-28T12:25:19.126Z,61.84
2019-01-28T12:28:26.627Z,62.11
2019-01-28T12:31:34.336Z,63.37
2019-01-28T12:34:42.034Z,63.29
2019-01-28T12:37:49.576Z,65.24
2019-01-28T12:40:57.138Z,66.43
2019-01-28T12:44:05.243Z,66.23
2019-01-28T12:47:12.663Z,66.98
2019-01-28T12:50:20.379Z,65.53
2019-01-28T12:53:28.238Z,65.91
2019-01-28T12:56:36.147Z,66.56
2019-01-28T12:59:44.016Z,66.63
2019-01-28T13:02:52.238Z,66.29
2019-01-28T13:05:59.762Z,66.81
2019-01-28T13:09:08.401Z,66.46
2019-01-28T13:12:19.312Z,64.07
2019-01-28T13:15:27.678Z,65.01
2019-01-28T13:18:35.382Z,65.61
2019-01-28T13:21:42.944Z,64.69
2019-01-28T13:24:50.433Z,63.59
2019-01-28T13:27:58.370Z,62.62
2019-01-28T13:31:05.913Z,62.26
2019-01-28T13:34:13.856Z,61.44
2019-01-28T13:37:21.399Z,59.82
2019-01-28T13:40:29.351Z,59.43
2019-01-28T13:43:36.954Z,59.83
2019-01-28T13:46:44.898Z,58.74
2019-01-28T13:49:53.396Z,58.68
2019-01-28T13:53:01.340Z,58.52
2019-01-28T13:56:09.307Z,58.30
2019-01-28T13:59:17.795Z,58.56
2019-01-28T14:02:25.449Z,58.91
2019-01-28T14:05:33.210Z,57.74
2019-01-28T14:08:41.181Z,57.79
2019-01-28T14:11:48.883Z,57.72
2019-01-28T14:14:56.631Z,58.11
2019-01-28T14:18:05.891Z,59.35
2019-01-28T14:21:13.727Z,59.43
2019-01-28T14:24:21.297Z,60.44
2019-01-28T14:27:28.872Z,60.21
2019-01-28T14:30:45.734Z,60.81
2019-01-28T14:33:53.315Z,60.51
2019-01-28T14:37:00.998Z,60.73
2019-01-28T14:40:12.250Z,59.83
2019-01-28T14:43:20.294Z,60.49
2019-01-28T14:46:28.044Z,61.66
2019-01-28T14:49:36.385Z,62.10
2019-01-28T14:52:44.792Z,63.04
2019-01-28T14:55:52.472Z,62.45
2019-01-28T14:59:00.249Z,62.26
2019-01-28T15:02:08.107Z,62.90
2019-01-28T15:05:15.901Z,63.19
2019-01-28T15:08:23.682Z,63.92
2019-01-28T15:11:31.725Z,65.00
2019-01-28T15:14:39.475Z,64.99
2019-01-28T15:17:50.080Z,66.03
2019-01-28T15:20:57.703Z,65.00
2019-01-28T15:24:05.283Z,65.75
2019-01-28T15:27:15.603Z,66.74
2019-01-28T15:30:25.885Z,66.26
2019-01-28T15:33:34.057Z,66.92
2019-01-28T15:36:41.864Z,67.99
2019-01-28T15:39:49.672Z,67.56
2019-01-28T15:42:57.891Z,68.84
2019-01-28T15:46:06.154Z,68.81
2019-01-28T15:49:14.053Z,68.87
2019-01-28T15:52:21.895Z,69.42
2019-01-28T15:55:33.188Z,68.93
2019-01-28T15:58:41.048Z,70.36
2019-01-28T16:01:49.007Z,70.29
2019-01-28T16:04:56.674Z,71.46
2019-01-28T16:08:05.357Z,71.59
2019-01-28T16:11:13.533Z,70.64
2019-01-28T16:14:21.647Z,70.08
2019-01-28T16:17:29.906Z,70.65
2019-01-28T16:20:37.858Z,70.44
2019-01-28T16:23:45.497Z,70.54
2019-01-28T16:26:53.188Z,70.94
2019-01-28T16:30:00.867Z,70.79
2019-01-28T16:33:09.269Z,71.03
2019-01-28T16:36:17.229Z,71.75
2019-01-28T16:39:24.865Z,71.96
2019-01-28T16:42:32.717Z,70.91
2019-01-28T16:45:40.451Z,71.02
2019-01-28T16:48:48.178Z,72.20
2019-01-28T16:51:56.057Z,71.96
2019-01-28T16:55:05.440Z,71.70
2019-01-28T16:58:13.603Z,71.61
2019-01-28T17:01:23.722Z,72.21
2019-01-28T17:04:32.032Z,72.25
2019-01-28T17:07:39.840Z,72.90
2019-01-28T17:10:47.438Z,74.23
2019-01-28T17:13:55.509Z,74.58
2019-01-28T17:17:03.546Z,74.76
2019-01-28T17:20:16.494Z,75.22
2019-01-28T17:23:24.499Z,76.11
2019-01-28T17:26:32.506Z,77.21
2019-01-28T17:29:40.499Z,77.04
2019-01-28T17:32:48.291Z,78.30
2019-01-28T17:35:55.916Z,79.07
2019-01-28T17:39:06.985Z,79.92
2019-01-28T17:42:15.007Z,81.24
2019-01-28T17:45:23.595Z,82.34
2019-01-28T17:48:31.670Z,83.42
2019-01-28T17:51:39.744Z,85.24
2019-01-28T17:54:47.268Z,86.41
2019-01-28T17:57:55.149Z,86.97
2019-01-28T18:01:04.075Z,87.88
2019-01-28T18:04:11.596Z,88.60
2019-01-28T18:07:19.246Z,89.24
2019-01-28T18:10:27.024Z,89.09
2019-01-28T18:13:34.731Z,89.54
2019-01-28T18:16:42.494Z,90.43
2019-01-28T18:19:50.590Z,91.64
2019-01-28T18:22:58.130Z,92.47
2019-01-28T18:26:05.770Z,93.34
2019-01-28T18:29:14.411Z,93.98
2019-01-28T18:32:22.758Z,94.18
2019-01-28T18:35:30.920Z,94.47
2019-01-28T18:38:38.860Z,95.21
2019-01-28T18:41:52.220Z,95.75
2019-01-28T18:44:59.971Z,95.76
2019-01-28T18:48:08.573Z,96.48
2019-01-28T18:51:16.910Z,96.85
2019-01-28T18:54:24.670Z,97.22
2019-01-28T18:57:32.287Z,96.88
2019-01-28T19:00:40.180Z,97.14
2019-01-28T19:03:47.715Z,97.16
2019-01-28T19:07:33.247Z,96.61
2019-01-28T19:10:46.326Z,96.21
2019-01-28T19:14:04.305Z,95.79
2019-01-28T19:17:37.168Z,96.00
2019-01-28T19:20:53.218Z,95.77
2019-01-28T19:24:01.298Z,95.49
2019-01-28T19:27:08.991Z,94.87
2019-01-28T19:30:20.079Z,94.49
2019-01-28T19:33:27.734Z,94.13
2019-01-28T19:36:35.656Z,94.25
2019-01-28T19:39:44.550Z,93.21
2019-01-28T19:42:52.739Z,93.18
2019-01-28T19:46:00.402Z,93.33
2019-01-28T19:49:08.081Z,94.12
2019-01-28T19:52:16.263Z,93.83
2019-01-28T19:55:24.033Z,93.48
2019-01-28T19:58:32.414Z,93.82
2019-01-28T20:01:40.094Z,92.74
2019-01-28T20:04:51.116Z,92.49
2019-01-28T20:07:59.340Z,92.35
2019-01-28T20:11:07.233Z,92.38
2019-01-28T20:14:16.143Z,92.16
2019-01-28T20:17:24.432Z,91.73
2019-01-28T20:20:33.453Z,91.59
2019-01-28T20:23:42.235Z,92.18
2019-01-28T20:26:50.157Z,91.75
2019-01-28T20:29:58.172Z,91.66
2019-01-28T20:33:06.973Z,91.78
2019-01-28T20:36:15.435Z,91.37
2019-01-28T20:39:23.529Z,91.73
2019-01-28T20:42:31.619Z,91.83
2019-01-28T20:45:44.922Z,91.75
2019-01-28T20:48:49.298Z,91.94
2019-01-28T20:51:58.535Z,92.03
2019-01-28T20:55:06.496Z,91.71
2019-01-28T20:58:14.414Z,91.78
2019-01-28T21:01:23.740Z,91.92
2019-01-28T21:04:34.780Z,92.06
2019-01-28T21:07:45.956Z,92.38
2019-01-28T21:10:53.843Z,92.89
2019-01-28T21:14:01.752Z,93.32
2019-01-28T21:17:09.333Z,93.31
2019-01-28T21:20:17.399Z,93.08
2019-01-28T21:23:26.738Z,93.65
2019-01-28T21:26:36.984Z,93.84
2019-01-28T21:29:44.507Z,94.32
2019-01-28T21:32:52.407Z,96.38
2019-01-28T21:36:23.299Z,98.13
2019-01-28T21:39:34.170Z,99.15
2019-01-28T21:42:41.995Z,100.00
2019-01-28T21:45:49.755Z,100.00
2019-01-28T21:48:57.618Z,100.00
2019-01-28T21:52:08.417Z,100.00
2019-01-28T21:55:16.252Z,100.00
2019-01-28T21:58:27.584Z,100.00
2019-01-28T22:01:35.395Z,100.00
2019-01-28T22:04:43.317Z,100.00
2019-01-28T22:07:52.599Z,100.00
2019-01-28T22:11:01.010Z,100.00
2019-01-28T22:14:08.696Z,100.00
2019-01-28T22:17:16.746Z,100.00
2019-01-28T22:20:24.653Z,100.00
2019-01-28T22:23:32.300Z,100.00
2019-01-28T22:26:39.950Z,100.00
2019-01-28T22:29:48.418Z,100.00
2019-01-28T22:32:56.262Z,100.00
2019-01-28T22:36:04.691Z,100.00
2019-01-28T22:39:13.539Z,100.00
2019-01-28T22:42:21.810Z,100.00
2019-01-28T22:45:30.175Z,100.00
2019-01-28T22:48:38.226Z,100.00
2019-01-28T22:51:45.863Z,100.00
2019-01-28T22:54:55.319Z,100.00
2019-01-28T22:58:03.417Z,100.00
2019-01-28T23:01:24.884Z,100.00
2019-01-28T23:04:32.970Z,100.00
2019-01-28T23:07:43.278Z,100.00
2019-01-28T23:10:50.797Z,100.00
2019-01-28T23:13:59.730Z,100.00
2019-01-28T23:17:07.493Z,100.00
2019-01-28T23:20:18.539Z,100.00
2019-01-28T23:23:26.331Z,100.00
2019-01-28T23:26:33.845Z,100.00
2019-01-28T23:29:41.473Z,100.00
2019-01-28T23:32:49.011Z,100.00
2019-01-28T23:35:56.543Z,100.00
2019-01-28T23:39:07.234Z,100.00
2019-01-28T23:42:15.234Z,100.00
2019-01-28T23:45:22.791Z,100.00
2019-01-28T23:48:30.515Z,100.00
2019-01-28T23:51:38.263Z,100.00
2019-01-28T23:54:45.734Z,100.00
2019-01-28T23:57:56.832Z,100.00
